TimePST,TemperatureF,Dew PointF,Humidity,Sea Level PressureIn,VisibilityMPH,Wind Direction,Wind SpeedMPH,Gust SpeedMPH,PrecipitationIn,Events,Conditions,WindDirDegrees,DateUTC
12:53 AM,36.0,35.1,97,30.31,8.0,Calm,Calm,-,N/A,,Clear,0,2011-11-09 08:53:00
1:53 AM,37.0,36.0,96,30.30,7.0,Calm,Calm,-,N/A,,Clear,0,2011-11-09 09:53:00
2:53 AM,35.1,33.1,92,30.30,9.0,Calm,Calm,-,N/A,,Clear,0,2011-11-09 10:53:00
4:53 AM,35.1,33.1,92,30.30,10.0,Calm,Calm,-,N/A,,Clear,0,2011-11-09 12:53:00
5:53 AM,37.0,34.0,89,30.31,10.0,Calm,Calm,-,N/A,,Clear,0,2011-11-09 13:53:00
6:53 AM,39.9,37.0,89,30.32,10.0,Calm,Calm,-,N/A,,Clear,0,2011-11-09 14:53:00
7:53 AM,45.0,39.9,82,30.32,10.0,North,5.8,-,N/A,,Clear,360,2011-11-09 15:53:00
8:53 AM,50.0,39.9,68,30.33,10.0,North,3.5,-,N/A,,Clear,10,2011-11-09 16:53:00
10:53 AM,57.0,42.1,57,30.32,10.0,Variable,6.9,-,N/A,,Clear,0,2011-11-09 18:53:00
11:53 AM,57.9,41.0,53,30.29,10.0,Variable,5.8,-,N/A,,Clear,0,2011-11-09 19:53:00
12:53 PM,61.0,41.0,48,30.25,10.0,NE,5.8,-,N/A,,Clear,40,2011-11-09 20:53:00
1:53 PM,61.0,39.0,44,30.22,10.0,Variable,5.8,-,N/A,,Clear,0,2011-11-09 21:53:00
2:53 PM,62.1,39.9,44,30.22,10.0,ENE,5.8,-,N/A,,Clear,60,2011-11-09 22:53:00
3:53 PM,61.0,39.9,46,30.20,10.0,Variable,3.5,-,N/A,,Clear,0,2011-11-09 23:53:00
4:53 PM,54.0,41.0,62,30.19,10.0,Calm,Calm,-,N/A,,Clear,0,2011-11-10 00:53:00
5:53 PM,51.1,42.1,71,30.19,10.0,NNW,4.6,-,N/A,,Clear,330,2011-11-10 01:53:00
6:53 PM,48.9,41.0,74,30.19,10.0,NNW,5.8,-,N/A,,Clear,340,2011-11-10 02:53:00
7:53 PM,48.9,41.0,74,30.18,10.0,NNW,6.9,-,N/A,,Clear,330,2011-11-10 03:53:00
8:53 PM,50.0,41.0,71,30.19,10.0,North,5.8,-,N/A,,Clear,350,2011-11-10 04:53:00
9:53 PM,48.0,41.0,77,30.19,10.0,NNW,5.8,-,N/A,,Clear,330,2011-11-10 05:53:00
10:53 PM,48.0,39.0,71,30.19,10.0,North,4.6,-,N/A,,Clear,350,2011-11-10 06:53:00
11:53 PM,46.0,39.0,76,30.19,10.0,NNW,4.6,-,N/A,,Clear,340,2011-11-10 07:53:00